Data for 02/11/2006

Time Sea-Level Adjusted Pressure Absolute Pressure Temperature Relative Humidity Dew Point   
(mb) (inHg) (mb) (inHg) (C) (F) (%) (C) (F)
00:05 1033 30.5 862 25.45 -12.3 9.9 63 -18 -0.5
00:10 1033 30.5 862 25.45 -12.3 9.8 63 -18 -0.5
00:15 1033 30.5 862 25.45 -12.3 9.8 63 -18.1 -0.5
00:20 1033 30.5 862 25.45 -12.2 10 63 -18 -0.3
00:25 1033 30.5 862 25.45 -12.4 9.7 63 -18 -0.4
00:30 1033 30.5 862 25.45 -12.4 9.6 64 -17.9 -0.2
00:35 1033 30.5 862 25.45 -12.2 10.1 64 -17.7 0.2
00:40 1033 30.5 862 25.45 -11.9 10.5 61 -18 -0.4
00:45 1033 30.5 862 25.45 -11.9 10.6 62 -17.8 -0.1
00:50 1033 30.5 862 25.45 -12.3 9.9 64 -17.8 -0.1
00:55 1033 30.5 862 25.45 -12.6 9.4 63 -18.3 -0.9
01:00 1033 30.5 862 25.45 -12.5 9.5 63 -18.1 -0.5
01:05 1033 30.5 862 25.45 -12.3 9.9 62 -18.1 -0.5
01:10 1033 30.5 862 25.45 -12.2 10 62 -18.1 -0.5
01:15 1033 30.5 862 25.45 -12.3 10 62 -18.1 -0.6
01:20 1033 30.5 862 25.45 -12.1 10.2 62 -18 -0.3
01:25 1033 30.5 862 25.45 -12.2 10.1 63 -17.9 -0.3
01:30 1033 30.5 862 25.45 -12.3 9.8 63 -18.1 -0.5
01:35 1033 30.5 862 25.45 -12.6 9.3 63 -18.3 -0.9
01:40 1033 30.5 862 25.45 -12.7 9.1 63 -18.5 -1.3
01:45 1033 30.5 862 25.45 -13 8.5 63 -18.6 -1.5
01:50 1033 30.5 862 25.45 -12.8 9 60 -19 -2.2
01:55 1033 30.5 862 25.45 -12.9 8.7 61 -18.9 -2.1
02:00 1033 30.5 862 25.45 -12.9 8.8 63 -18.5 -1.4
02:05 1033 30.5 862 25.45 -12.8 8.9 63 -18.4 -1.1
02:10 1033 30.5 862 25.45 -13 8.7 65 -18.3 -0.9
02:15 1033 30.5 862 25.45 -13 8.7 66 -18.2 -0.7
02:20 1033 30.5 862 25.45 -12.9 8.8 64 -18.4 -1.1
02:25 1033 30.5 862 25.45 -12.7 9.2 63 -18.3 -1
02:30 1033 30.5 862 25.45 -12.7 9.1 63 -18.4 -1.2
02:35 1033 30.5 862 25.45 -12.6 9.3 62 -18.5 -1.3
02:40 1033 30.5 862 25.45 -12.6 9.4 62 -18.5 -1.3
02:45 1033 30.5 862 25.45 -12.7 9.2 63 -18.4 -1.1
02:50 1033 30.5 862 25.45 -12.7 9.1 62 -18.5 -1.3
02:55 1032 30.47 862 25.45 -12.9 8.8 63 -18.5 -1.4
03:00 1032 30.47 862 25.45 -12.9 8.9 64 -18.4 -1.1
03:05 1032 30.47 862 25.45 -13.1 8.5 63 -18.7 -1.6
03:10 1032 30.47 862 25.45 -13 8.7 62 -18.9 -1.9
03:15 1032 30.47 862 25.45 -12.9 8.8 62 -18.8 -1.9
03:20 1032 30.47 861 25.43 -12.8 9 62 -18.7 -1.7
03:25 1032 30.47 861 25.43 -12.6 9.4 61 -18.6 -1.5
03:30 1032 30.47 861 25.43 -12.4 9.6 60 -18.6 -1.5
03:35 1032 30.47 861 25.43 -12.4 9.7 60 -18.6 -1.4
03:40 1032 30.47 861 25.43 -12.4 9.6 61 -18.5 -1.3
03:45 1032 30.47 861 25.43 -12.8 9.1 62 -18.6 -1.4
03:50 1032 30.47 861 25.43 -12.8 9 62 -18.6 -1.5
03:55 1032 30.47 861 25.43 -12.8 9 62 -18.7 -1.6
04:00 1032 30.47 861 25.43 -12.7 9.1 62 -18.6 -1.5
04:05 1032 30.47 861 25.43 -12.8 8.9 63 -18.5 -1.3
04:10 1032 30.47 861 25.43 -13 8.7 63 -18.6 -1.5
04:15 1032 30.47 861 25.43 -13 8.5 63 -18.6 -1.5
04:20 1032 30.47 861 25.43 -12.8 8.9 59 -19.2 -2.5
04:25 1032 30.47 861 25.43 -12.7 9.2 60 -19 -2.2
04:30 1032 30.47 861 25.43 -12.5 9.5 60 -18.7 -1.7
04:35 1032 30.47 861 25.43 -12.2 10 59 -18.6 -1.5
04:40 1032 30.47 861 25.43 -12 10.3 59 -18.6 -1.5
04:45 1032 30.47 861 25.43 -12 10.4 59 -18.5 -1.4
04:50 1032 30.47 861 25.43 -11.9 10.6 60 -18.3 -0.9
04:55 1032 30.47 861 25.43 -12.1 10.3 61 -18.2 -0.8
05:00 1032 30.47 861 25.43 -12.4 9.6 60 -18.6 -1.6
05:05 1032 30.47 861 25.43 -12.5 9.5 60 -18.7 -1.6
05:10 1032 30.47 861 25.43 -12.5 9.6 59 -18.9 -2
05:15 1032 30.47 861 25.43 -12.3 9.9 59 -18.7 -1.7
05:20 1032 30.47 861 25.43 -12 10.3 58 -18.7 -1.6
05:25 1032 30.47 861 25.43 -12.1 10.1 59 -18.6 -1.5
05:30 1032 30.47 861 25.43 -12.2 10 59 -18.6 -1.5
05:35 1032 30.47 861 25.43 -12.4 9.6 59 -18.9 -2
05:40 1032 30.47 861 25.43 -12.3 9.9 58 -18.9 -2.1
05:45 1032 30.47 861 25.43 -12.3 9.9 58 -18.9 -1.9
05:50 1032 30.47 861 25.43 -12.2 10 58 -18.8 -1.9
05:55 1032 30.47 861 25.43 -12.2 10 58 -18.8 -1.9
06:00 1032 30.47 861 25.43 -12.1 10.2 58 -18.8 -1.9
06:05 1032 30.47 861 25.43 -12.1 10.2 59 -18.7 -1.7
06:10 1032 30.47 861 25.43 -12.1 10.1 59 -18.6 -1.5
06:15 1032 30.47 861 25.43 -12.2 10.1 59 -18.6 -1.5
06:20 1032 30.47 861 25.43 -12.1 10.2 58 -18.8 -1.9
06:25 1032 30.47 861 25.43 -12.3 9.9 61 -18.3 -0.9
06:30 1032 30.47 861 25.43 -12.8 9 61 -18.9 -2.1
06:35 1032 30.47 861 25.43 -13.3 8.1 61 -19.2 -2.6
06:40 1032 30.47 861 25.43 -13.7 7.4 63 -19.4 -2.8
06:45 1032 30.47 861 25.43 -13.6 7.5 62 -19.4 -2.9
06:50 1032 30.47 861 25.43 -13.6 7.6 62 -19.3 -2.8
06:55 1032 30.47 861 25.43 -13.4 7.9 62 -19.2 -2.6
07:00 1032 30.47 861 25.43 -13.1 8.4 61 -19.1 -2.3
07:05 1032 30.47 861 25.43 -13.2 8.2 63 -18.9 -2.1
07:10 1032 30.47 862 25.45 -13.4 7.9 61 -19.4 -2.9
07:15 1032 30.47 862 25.45 -13.7 7.4 62 -19.5 -3
07:20 1032 30.47 861 25.43 -13.8 7.2 64 -19.3 -2.7
07:25 1032 30.47 862 25.45 -13.8 7.1 63 -19.4 -2.9
07:30 1032 30.47 862 25.45 -14 6.8 65 -19.2 -2.5
07:35 1032 30.47 862 25.45 -14.5 5.9 66 -19.5 -3
07:40 1032 30.47 862 25.45 -14 6.9 63 -19.5 -3.1
07:45 1033 30.5 862 25.45 -13.5 7.8 61 -19.4 -3
07:50 1033 30.5 862 25.45 -12.9 8.8 61 -19 -2.3
07:55 1033 30.5 862 25.45 -12.6 9.3 60 -18.9 -2.1
08:00 1033 30.5 862 25.45 -12.2 10.1 58 -18.9 -2.1
08:05 1033 30.5 862 25.45 -12.1 10.2 59 -18.6 -1.4
08:10 1033 30.5 862 25.45 -12.2 10 59 -18.6 -1.6
08:15 1033 30.5 862 25.45 -11.9 10.6 58 -18.6 -1.4
08:20 1033 30.5 862 25.45 -11.9 10.5 58 -18.7 -1.6
08:25 1033 30.5 862 25.45 -12.3 9.9 59 -18.8 -1.9
08:30 1033 30.5 862 25.45 -12.1 10.2 59 -18.5 -1.4
08:35 1033 30.5 862 25.45 -11.7 10.9 57 -18.6 -1.5
08:40 1033 30.5 862 25.45 -11.9 10.5 58 -18.5 -1.4
08:45 1033 30.5 862 25.45 -11.5 11.3 55 -18.8 -1.8
08:50 1033 30.5 862 25.45 -10.7 12.8 53 -18.5 -1.4
08:55 1033 30.5 862 25.45 -9.6 14.7 49 -18.4 -1.1
09:00 1033 30.5 862 25.45 -9.1 15.7 48 -18.3 -0.9
09:05 1033 30.5 863 25.48 -8.9 15.9 46 -18.5 -1.4
09:10 1033 30.5 863 25.48 -8.7 16.3 45 -18.7 -1.6
09:15 1033 30.5 863 25.48 -8.4 16.9 45 -18.2 -0.8
09:20 1033 30.5 863 25.48 -8.1 17.5 45 -18 -0.5
09:25 1033 30.5 863 25.48 -7.6 18.3 44 -18 -0.4
09:30 1033 30.5 863 25.48 -8 17.6 47 -17.5 0.4
09:35 1034 30.53 863 25.48 -9 15.9 48 -18 -0.4
09:40 1033 30.5 863 25.48 -8.6 16.5 46 -18.3 -1
09:45 1033 30.5 863 25.48 -8.2 17.2 43 -18.7 -1.7
09:50 1033 30.5 863 25.48 -8.1 17.4 44 -18.5 -1.2
09:55 1033 30.5 863 25.48 -7.6 18.2 43 -18.2 -0.8
10:00 1033 30.5 863 25.48 -7.6 18.3 45 -17.5 0.5
10:05 1033 30.5 863 25.48 -7.4 18.6 43 -17.9 -0.2
10:10 1033 30.5 863 25.48 -7.8 18 45 -17.7 0.2
10:15 1033 30.5 863 25.48 -8.5 16.7 45 -18.4 -1.1
10:20 1033 30.5 862 25.45 -8.5 16.8 46 -18.2 -0.8
10:25 1033 30.5 862 25.45 -8.6 16.6 45 -18.6 -1.5
10:30 1033 30.5 862 25.45 -7.3 18.8 42 -18.2 -0.7
10:35 1033 30.5 862 25.45 -6.4 20.6 39 -18.1 -0.5
10:40 1033 30.5 862 25.45 -5.7 21.8 38 -18 -0.3
10:45 1033 30.5 862 25.45 -5.8 21.6 38 -18.1 -0.5
10:50 1033 30.5 862 25.45 -5.8 21.5 38 -18.1 -0.6
10:55 1033 30.5 862 25.45 -5.6 21.9 36 -18.6 -1.4
11:00 1033 30.5 862 25.45 -5 23 35 -18.4 -1.1
11:05 1033 30.5 862 25.45 -4.7 23.5 34 -18.3 -0.9
11:10 1033 30.5 862 25.45 -4.4 24 34 -18 -0.3
11:15 1033 30.5 862 25.45 -4 24.8 34 -17.8 -0.1
11:20 1033 30.5 862 25.45 -3.8 25.1 33 -17.8 -0
11:25 1033 30.5 862 25.45 -3.7 25.4 33 -17.8 -0
11:30 1033 30.5 862 25.45 -3.1 26.5 32 -17.5 0.5
11:35 1033 30.5 862 25.45 -2.8 27 33 -17 1.4
11:40 1033 30.5 862 25.45 -3.4 25.9 33 -17.3 0.8
11:45 1033 30.5 862 25.45 -4.3 24.3 35 -17.7 0.2
11:50 1033 30.5 862 25.45 -4.3 24.2 35 -17.8 0
11:55 1033 30.5 862 25.45 -4.9 23.2 37 -17.4 0.7
12:00 1033 30.5 862 25.45 -4.7 23.6 36 -17.5 0.6
12:05 1033 30.5 862 25.45 -4.5 23.8 37 -17.3 0.9
12:10 1033 30.5 862 25.45 -4.5 23.9 36 -17.5 0.6
12:15 1033 30.5 862 25.45 -5 23 37 -17.7 0.2
12:20 1033 30.5 862 25.45 -5 22.9 37 -17.6 0.3
12:25 1033 30.5 862 25.45 -3.8 25.2 33 -17.8 0
12:30 1033 30.5 862 25.45 -3.6 25.5 32 -18 -0.5
12:35 1033 30.5 862 25.45 -4 24.7 32 -18.3 -1
12:40 1032 30.47 862 25.45 -3.4 25.8 32 -18 -0.4
12:45 1032 30.47 862 25.45 -2.9 26.7 31 -18 -0.4
12:50 1033 30.5 862 25.45 -2.8 27 31 -17.6 0.3
12:55 1033 30.5 862 25.45 -2.9 26.9 31 -17.7 0.1
13:00 1033 30.5 862 25.45 -3.2 26.2 33 -17.5 0.6
13:05 1033 30.5 862 25.45 -2.8 27 31 -17.6 0.3
13:10 1032 30.47 862 25.45 -2.6 27.4 30 -17.9 -0.3
13:15 1033 30.5 862 25.45 -2.6 27.3 33 -17 1.4
13:20 1032 30.47 862 25.45 -2.6 27.3 33 -16.7 2
13:25 1032 30.47 862 25.45 -3.1 26.4 36 -16.1 3
13:30 1032 30.47 862 25.45 -3.2 26.2 35 -16.7 2
13:35 1032 30.47 862 25.45 -3.3 26.1 34 -16.9 1.6
13:40 1032 30.47 862 25.45 -2.9 26.9 33 -16.9 1.6
13:45 1032 30.47 861 25.43 -2.9 26.8 34 -16.7 1.9
13:50 1032 30.47 861 25.43 -2.7 27.1 32 -17.1 1.1
13:55 1032 30.47 861 25.43 -2.5 27.6 31 -17.3 0.8
14:00 1032 30.47 861 25.43 -2.4 27.7 31 -17.3 0.8
14:05 1032 30.47 861 25.43 -2 28.5 29 -17.9 -0.2
14:10 1032 30.47 861 25.43 -2.2 28.1 33 -16.5 2.2
14:15 1032 30.47 861 25.43 -2.7 27.2 33 -17 1.5
14:20 1032 30.47 861 25.43 -1.9 28.5 30 -17.5 0.4
14:25 1032 30.47 861 25.43 -1.6 29.2 29 -17.4 0.8
14:30 1032 30.47 861 25.43 -1 30.2 29 -16.9 1.5
14:35 1032 30.47 861 25.43 -0.4 31.3 27 -17.2 1.1
14:40 1032 30.47 861 25.43 -0.2 31.6 28 -16.8 1.8
14:45 1032 30.47 861 25.43 -0.1 31.9 28 -16.7 2
14:50 1032 30.47 861 25.43 -0.2 31.7 29 -16.2 2.9
14:55 1032 30.47 861 25.43 -0.1 31.8 30 -15.9 3.4
15:00 1032 30.47 861 25.43 -0.1 31.8 31 -15.2 4.6
15:05 1032 30.47 861 25.43 -0.1 31.8 29 -16 3.3
15:10 1032 30.47 861 25.43 -0.7 30.7 33 -15 5
15:15 1032 30.47 861 25.43 -0.8 30.5 33 -15.1 4.8
15:20 1032 30.47 861 25.43 -0.5 31 32 -15.3 4.4
15:25 1032 30.47 861 25.43 -1 30.1 33 -15.5 4.1
15:30 1032 30.47 861 25.43 -0.2 31.6 31 -15.3 4.5
15:35 1032 30.47 861 25.43 1.3 34.3 28 -15.3 4.4
15:40 1032 30.47 861 25.43 1.7 35 28 -15.1 4.9
15:45 1032 30.47 861 25.43 1.9 35.5 26 -15.5 4.2
15:50 1032 30.47 861 25.43 1.5 34.7 28 -15.1 4.8
15:55 1032 30.47 861 25.43 -0.1 31.9 31 -15.3 4.5
16:00 1032 30.47 861 25.43 -0.5 31.1 31 -15.8 3.6
16:05 1032 30.47 861 25.43 -0.1 31.8 28 -16.7 1.9
16:10 1032 30.47 861 25.43 0.2 32.4 25 -17.7 0.1
16:15 1032 30.47 861 25.43 0.8 33.5 21 -19.4 -2.9
16:20 1031 30.45 861 25.43 -0.2 31.6 25 -17.9 -0.2
16:25 1031 30.45 861 25.43 0.2 32.4 23 -18.5 -1.3
16:30 1031 30.45 861 25.43 1 33.9 23 -18.2 -0.7
16:35 1031 30.45 861 25.43 1.5 34.7 21 -18.6 -1.4
16:40 1031 30.45 861 25.43 1.5 34.8 23 -17.6 0.3
16:45 1031 30.45 860 25.4 1.4 34.5 22 -18.3 -1
16:50 1031 30.45 860 25.4 1.3 34.4 25 -16.7 1.9
16:55 1031 30.45 860 25.4 1 33.9 31 -14.2 6.4
17:00 1031 30.45 860 25.4 0.6 33 37 -12.6 9.4
17:05 1031 30.45 860 25.4 0.2 32.4 39 -12.2 10.1
17:10 1031 30.45 861 25.43 0.1 32.2 41 -11.8 10.8
17:15 1031 30.45 861 25.43 -0.1 31.9 42 -11.5 11.4
17:20 1031 30.45 861 25.43 -0.3 31.4 43 -11.4 11.5
17:25 1031 30.45 861 25.43 -0.5 31 44 -11.3 11.6
17:30 1031 30.45 861 25.43 -1.6 29.2 47 -11.5 11.3
17:35 1031 30.45 861 25.43 -2.2 28 47 -12.1 10.3
17:40 1031 30.45 861 25.43 -2.4 27.6 46 -12.5 9.5
17:45 1031 30.45 861 25.43 -2.7 27.1 48 -12.2 10
17:50 1031 30.45 861 25.43 -2.5 27.5 46 -12.6 9.4
17:55 1031 30.45 860 25.4 -2.3 27.8 45 -12.6 9.3
18:00 1031 30.45 861 25.43 -2.3 27.8 45 -12.8 8.9
18:05 1031 30.45 861 25.43 -2.4 27.6 46 -12.7 9.2
18:10 1031 30.45 861 25.43 -2 28.4 41 -13.5 7.7
18:15 1031 30.45 861 25.43 -2 28.3 41 -13.6 7.6
18:20 1031 30.45 861 25.43 -2.4 27.7 35 -15.8 3.5
18:25 1031 30.45 861 25.43 -2.5 27.5 32 -17 1.4
18:30 1031 30.45 861 25.43 -2 28.4 28 -18.3 -1
18:35 1031 30.45 861 25.43 -1.5 29.2 27 -18.1 -0.6
18:40 1031 30.45 861 25.43 -1.7 29 33 -16 3.2
18:45 1031 30.45 861 25.43 -2.6 27.3 39 -14.6 5.7
18:50 1031 30.45 861 25.43 -3.6 25.4 39 -15.6 3.9
18:55 1032 30.47 861 25.43 -4 24.9 34 -17.6 0.3
19:00 1031 30.45 861 25.43 -4 24.8 31 -18.7 -1.7
19:05 1031 30.45 861 25.43 -3.6 25.5 31 -18.5 -1.3
19:10 1031 30.45 861 25.43 -4.1 24.6 32 -18.7 -1.6
19:15 1032 30.47 861 25.43 -4.3 24.3 31 -19 -2.2
19:20 1032 30.47 861 25.43 -4 24.8 32 -18.2 -0.8
19:25 1032 30.47 861 25.43 -4 24.8 34 -17.6 0.3
19:30 1032 30.47 861 25.43 -4.1 24.6 37 -16.8 1.7
19:35 1032 30.47 861 25.43 -4.2 24.5 36 -17.2 1
19:40 1032 30.47 861 25.43 -4.1 24.6 33 -18.1 -0.7
19:45 1032 30.47 861 25.43 -4 24.9 32 -18.5 -1.3
19:50 1032 30.47 861 25.43 -3.9 25 31 -18.6 -1.5
19:55 1032 30.47 861 25.43 -3.6 25.6 31 -18.3 -1
20:00 1032 30.47 861 25.43 -3.6 25.5 32 -18.1 -0.6
20:05 1032 30.47 861 25.43 -3.6 25.4 29 -19.3 -2.7
20:10 1032 30.47 861 25.43 -3.8 25.2 28 -19.7 -3.5
20:15 1032 30.47 861 25.43 -3.5 25.6 29 -19.2 -2.5
20:20 1032 30.47 861 25.43 -3.2 26.3 30 -18.6 -1.6
20:25 1032 30.47 861 25.43 -3.2 26.2 34 -17.1 1.2
20:30 1032 30.47 861 25.43 -3.9 24.9 37 -16.5 2.3
20:35 1032 30.47 861 25.43 -4.4 24.1 42 -15.5 4
20:40 1032 30.47 861 25.43 -4.4 24.2 46 -14.4 6.1
20:45 1031 30.45 861 25.43 -4.5 23.9 46 -14.3 6.2
20:50 1031 30.45 861 25.43 -4.7 23.5 47 -14.5 5.9
20:55 1031 30.45 861 25.43 -5.5 22.2 49 -14.5 5.9
21:00 1032 30.47 861 25.43 -5.7 21.7 52 -14.2 6.4
21:05 1032 30.47 861 25.43 -5.3 22.5 50 -14.1 6.7
21:10 1032 30.47 861 25.43 -4.6 23.8 40 -16.1 3
21:15 1032 30.47 861 25.43 -4.3 24.3 42 -15.4 4.2
21:20 1032 30.47 861 25.43 -4.2 24.4 40 -16 3.3
21:25 1031 30.45 861 25.43 -4.3 24.2 47 -14.1 6.6
21:30 1031 30.45 861 25.43 -4.3 24.2 39 -16.2 2.8
21:35 1032 30.47 861 25.43 -4.3 24.3 34 -18 -0.4
21:40 1032 30.47 861 25.43 -4 24.8 34 -17.6 0.3
21:45 1031 30.45 861 25.43 -3.6 25.5 38 -15.9 3.3
21:50 1031 30.45 861 25.43 -3.6 25.5 39 -15.6 3.9
21:55 1031 30.45 861 25.43 -3.7 25.3 38 -16 3.2
22:00 1032 30.47 861 25.43 -3.9 25 35 -17.2 1.1
22:05 1031 30.45 861 25.43 -4.1 24.6 37 -16.7 2
22:10 1031 30.45 861 25.43 -4.6 23.8 35 -17.7 0.1
22:15 1031 30.45 861 25.43 -4.6 23.7 34 -18.3 -1
22:20 1031 30.45 861 25.43 -4.2 24.4 31 -19 -2.2
22:25 1031 30.45 861 25.43 -4 24.8 32 -18.4 -1
22:30 1031 30.45 861 25.43 -3.8 25.1 31 -18.7 -1.7
22:35 1031 30.45 861 25.43 -3.5 25.8 30 -18.9 -2
22:40 1031 30.45 861 25.43 -3.4 25.9 34 -17 1.4
22:45 1031 30.45 861 25.43 -4.7 23.5 41 -15.9 3.3
22:50 1031 30.45 861 25.43 -4.6 23.8 33 -18.6 -1.4
22:55 1031 30.45 861 25.43 -3.8 25.1 32 -18.2 -0.8
23:00 1031 30.45 861 25.43 -3.6 25.6 33 -17.8 -0.1
23:05 1031 30.45 861 25.43 -3.2 26.2 39 -15.3 4.5
23:10 1031 30.45 861 25.43 -3.5 25.8 47 -13.3 8
23:15 1031 30.45 860 25.4 -4 24.9 51 -12.7 9.1
23:20 1031 30.45 860 25.4 -4.8 23.4 52 -13.2 8.2
23:25 1031 30.45 860 25.4 -5.5 22 51 -14.1 6.6
23:30 1031 30.45 860 25.4 -5.2 22.6 42 -16.1 3
23:35 1031 30.45 860 25.4 -5.1 22.9 41 -16.5 2.3
23:40 1031 30.45 860 25.4 -5.4 22.3 41 -16.5 2.2
23:45 1031 30.45 860 25.4 -5.4 22.3 40 -17.1 1.2
23:50 1031 30.45 860 25.4 -5 23 38 -17.3 0.9
23:55 1031 30.45 860 25.4 -4.7 23.6 37 -17.3 0.9
24:00 1031 30.45 860 25.4 -4.4 24.1 36 -17.4 0.7